LAS weather

McCarran International Airport
Las Vegas, Nevada, United States

Public forecast

Using degrees Fahrenheit for public forecast. Weather courtesy of forecast.io.

METAR (pilot weather report)

Retrieved 2017/05/30 09:56 UTC (49 minutes ago):

KLAS 300956Z 22004KT 10SM FEW250 26/M09 A2980 RMK AO2 SLP060 T02611094

TAF (pilot weather forecast)

Retrieved 2017/05/30 06:24 UTC (4 hours ago):

TAF KLAS 300523Z 3006/3106 24006KT P6SM BKN250 FM301500 07005KT P6SM BKN250 FM302200 19012KT P6SM BKN250